Time;durP1;ratioP1;P1;durP2;ratioP2;P2;SDS_P1;SDS_P2;PMS_P1;PMS_P2;Temp;Humidity;BMP_temperature;BMP_pressure;BME280_temperature;BME280_humidity;BME280_pressure;Samples;Min_cycle;Max_cycle;Signal;HPM_P1;HPM_P2
2023/07/22 00:01:32;;;;;;;5.90;2.60;;;13.60;99.90;;;;;;4231483;28;20180;-80
2023/07/22 00:03:33;;;;;;;5.55;2.80;;;13.60;99.90;;;;;;4231121;28;20043;-80
2023/07/22 00:05:34;;;;;;;5.40;2.40;;;13.60;99.90;;;;;;4231417;28;20114;-80
2023/07/22 00:07:35;;;;;;;9.50;2.92;;;13.60;99.90;;;;;;4231510;28;20051;-80
2023/07/22 00:09:35;;;;;;;5.10;2.67;;;13.60;99.90;;;;;;4247348;28;20050;-79
2023/07/22 00:11:36;;;;;;;6.28;3.03;;;13.60;99.90;;;;;;4248123;28;20047;-79
2023/07/22 00:13:37;;;;;;;5.05;2.25;;;13.60;99.90;;;;;;4249304;28;20057;-79
2023/07/22 00:15:37;;;;;;;8.23;2.63;;;13.60;99.90;;;;;;4235548;28;20500;-80
2023/07/22 00:17:40;;;;;;;8.93;3.15;;;13.60;99.90;;;;;;4232681;28;20114;-79
2023/07/22 00:19:41;;;;;;;6.97;2.90;;;13.60;99.90;;;;;;4231993;28;20506;-79
2023/07/22 00:21:41;;;;;;;7.38;3.00;;;13.60;99.90;;;;;;4245977;28;20044;-79
2023/07/22 00:23:42;;;;;;;9.73;2.88;;;13.70;99.90;;;;;;4245948;28;20051;-79
2023/07/22 00:25:43;;;;;;;7.35;2.22;;;13.60;99.90;;;;;;4245868;28;20058;-78
2023/07/22 00:27:44;;;;;;;6.60;2.80;;;13.60;99.90;;;;;;4246866;28;20040;-79
2023/07/22 00:29:45;;;;;;;6.65;2.40;;;13.60;99.90;;;;;;4246325;28;20110;-79
2023/07/22 00:31:46;;;;;;;7.78;2.60;;;13.70;99.90;;;;;;4248884;27;20078;-79
2023/07/22 00:33:46;;;;;;;6.13;2.42;;;13.60;99.90;;;;;;4249600;28;20040;-79
2023/07/22 00:35:50;;;;;;;6.30;2.08;;;13.60;99.90;;;;;;4250058;28;20073;-79
2023/07/22 00:37:50;;;;;;;7.75;2.15;;;13.60;99.90;;;;;;4241604;28;20048;-80
2023/07/22 00:39:51;;;;;;;5.72;2.13;;;13.50;99.90;;;;;;4230980;28;20344;-79
2023/07/22 00:41:52;;;;;;;4.75;2.20;;;13.50;99.90;;;;;;4231345;28;20581;-79
2023/07/22 00:43:53;;;;;;;9.10;2.85;;;13.50;99.90;;;;;;4231087;28;20040;-79
2023/07/22 00:45:53;;;;;;;4.57;2.40;;;13.40;99.90;;;;;;4231020;28;20119;-80
2023/07/22 00:47:54;;;;;;;6.72;2.10;;;13.40;99.90;;;;;;4230869;28;20047;-80
2023/07/22 00:49:55;;;;;;;6.78;2.65;;;13.30;99.90;;;;;;4230767;28;20047;-79
2023/07/22 00:52:01;;;;;;;7.93;2.30;;;13.30;99.90;;;;;;4230328;28;20483;-79
2023/07/22 00:54:04;;;;;;;6.25;2.60;;;13.30;99.90;;;;;;4230489;28;20501;-80
2023/07/22 00:56:05;;;;;;;4.75;1.92;;;13.30;99.90;;;;;;4230655;28;20040;-80
2023/07/22 00:58:06;;;;;;;5.50;2.05;;;13.30;99.90;;;;;;4230424;28;20074;-80
2023/07/22 01:00:07;;;;;;;3.33;1.73;;;13.20;99.90;;;;;;4231088;28;20095;-80
2023/07/22 01:02:08;;;;;;;6.07;2.35;;;13.20;99.90;;;;;;4239302;28;20126;-78
2023/07/22 01:04:09;;;;;;;5.93;1.70;;;13.20;99.90;;;;;;4236569;28;20048;-78
2023/07/22 01:06:10;;;;;;;3.75;1.70;;;13.20;99.90;;;;;;4230780;28;20115;-78
2023/07/22 01:08:11;;;;;;;4.60;2.35;;;13.20;99.90;;;;;;4229677;28;20544;-78
2023/07/22 01:10:14;;;;;;;4.80;1.70;;;13.20;99.90;;;;;;4231205;28;20459;-78
2023/07/22 01:12:15;;;;;;;4.18;1.83;;;13.20;99.90;;;;;;4230126;28;20040;-78
2023/07/22 01:14:16;;;;;;;5.13;1.92;;;13.20;99.90;;;;;;4230969;28;20046;-79
2023/07/22 01:16:17;;;;;;;4.20;1.67;;;13.20;99.90;;;;;;4229478;28;20048;-78
2023/07/22 01:18:18;;;;;;;4.38;1.65;;;13.20;99.90;;;;;;4230452;28;20043;-79
2023/07/22 01:20:20;;;;;;;5.82;1.50;;;13.20;99.90;;;;;;4229702;28;20039;-79
2023/07/22 01:22:22;;;;;;;4.10;1.67;;;13.10;99.90;;;;;;4230800;28;20538;-79
2023/07/22 01:24:23;;;;;;;5.57;1.92;;;13.10;99.90;;;;;;4228979;28;20051;-78
2023/07/22 01:26:23;;;;;;;8.98;2.55;;;13.10;99.90;;;;;;4230741;28;20038;-78
2023/07/22 01:28:24;;;;;;;5.57;2.13;;;13.10;99.90;;;;;;4230618;28;20039;-79
2023/07/22 01:30:27;;;;;;;5.85;1.90;;;13.10;99.90;;;;;;4230680;28;20114;-79
2023/07/22 01:32:27;;;;;;;7.40;2.30;;;13.10;99.90;;;;;;4229384;28;20507;-79
2023/07/22 01:34:29;;;;;;;6.30;2.50;;;13.10;99.90;;;;;;4228852;28;20044;-79
2023/07/22 01:36:30;;;;;;;9.60;4.13;;;13.00;99.90;;;;;;4234127;28;20447;-79
2023/07/22 01:38:31;;;;;;;11.55;3.15;;;13.00;99.90;;;;;;4233526;28;20043;-79
2023/07/22 01:40:32;;;;;;;5.63;2.85;;;13.00;99.90;;;;;;4234019;27;20423;-79
2023/07/22 01:42:32;;;;;;;7.35;2.25;;;13.00;99.90;;;;;;4232358;28;20376;-79
2023/07/22 01:44:33;;;;;;;7.90;3.22;;;12.90;99.90;;;;;;4233536;28;20043;-79
2023/07/22 01:46:34;;;;;;;7.90;2.45;;;12.90;99.90;;;;;;4233876;28;20097;-79
2023/07/22 01:48:35;;;;;;;7.10;2.92;;;12.90;99.90;;;;;;4233110;28;20086;-79
2023/07/22 01:50:36;;;;;;;10.60;2.90;;;12.80;99.90;;;;;;4232678;28;20047;-79
2023/07/22 01:52:36;;;;;;;7.70;2.70;;;12.90;99.90;;;;;;4233516;28;20039;-79
2023/07/22 01:54:37;;;;;;;9.82;3.13;;;12.80;99.90;;;;;;4233456;28;20091;-79
2023/07/22 01:56:39;;;;;;;8.18;2.25;;;12.80;99.90;;;;;;4233442;28;20060;-79
2023/07/22 01:58:39;;;;;;;6.20;2.42;;;12.80;99.90;;;;;;4233209;27;20084;-79
2023/07/22 02:00:40;;;;;;;7.95;2.13;;;12.80;99.90;;;;;;4233431;28;20044;-79
2023/07/22 02:02:42;;;;;;;4.68;2.60;;;12.80;99.90;;;;;;4233222;28;20114;-79
2023/07/22 02:04:42;;;;;;;5.40;2.30;;;12.80;99.90;;;;;;4233199;28;20043;-79
2023/07/22 02:06:43;;;;;;;8.13;3.17;;;12.70;99.90;;;;;;4232133;28;20045;-79
2023/07/22 02:08:45;;;;;;;8.15;2.45;;;12.70;99.90;;;;;;4231524;28;20158;-79
2023/07/22 02:10:46;;;;;;;5.43;2.47;;;12.70;99.90;;;;;;4233172;28;20047;-79
2023/07/22 02:12:47;;;;;;;9.80;2.92;;;12.70;99.90;;;;;;4233095;28;20040;-79
2023/07/22 02:14:47;;;;;;;11.45;2.67;;;12.70;99.90;;;;;;4232669;28;20046;-79
2023/07/22 02:16:48;;;;;;;5.50;2.58;;;12.70;99.90;;;;;;4232878;28;20047;-79
2023/07/22 02:18:49;;;;;;;5.88;2.92;;;12.70;99.90;;;;;;4232150;28;20433;-79
2023/07/22 02:20:49;;;;;;;9.73;3.70;;;12.60;99.90;;;;;;4233216;28;20036;-79
2023/07/22 02:22:50;;;;;;;6.35;3.10;;;12.60;99.90;;;;;;4233326;28;20046;-80
2023/07/22 02:24:51;;;;;;;7.78;2.67;;;12.60;99.90;;;;;;4231396;28;20051;-79
2023/07/22 02:26:51;;;;;;;8.10;2.67;;;12.60;99.90;;;;;;4230984;28;20052;-79
2023/07/22 02:28:54;;;;;;;7.63;2.53;;;12.60;99.90;;;;;;4231842;28;20130;-79
2023/07/22 02:30:55;;;;;;;10.07;2.92;;;12.50;99.90;;;;;;4231450;28;20463;-79
2023/07/22 02:32:56;;;;;;;7.65;3.03;;;12.50;99.90;;;;;;4233013;28;20040;-79
2023/07/22 02:34:57;;;;;;;7.90;2.45;;;12.50;99.90;;;;;;4232689;28;20132;-79
2023/07/22 02:36:57;;;;;;;6.15;3.00;;;12.50;99.90;;;;;;4232705;28;20429;-79
2023/07/22 02:38:59;;;;;;;6.90;2.40;;;12.50;99.90;;;;;;4232781;28;20079;-79
2023/07/22 02:41:06;;;;;;;5.65;2.88;;;12.50;99.90;;;;;;4232879;28;20441;-79
2023/07/22 02:43:06;;;;;;;5.72;2.45;;;12.40;99.90;;;;;;4231769;28;20055;-79
2023/07/22 02:45:07;;;;;;;5.30;2.58;;;12.40;99.90;;;;;;4231808;28;20059;-79
2023/07/22 02:47:08;;;;;;;7.15;2.72;;;12.40;99.90;;;;;;4232408;28;20043;-79
2023/07/22 02:49:09;;;;;;;6.75;2.58;;;12.40;99.90;;;;;;4232361;28;20042;-79
2023/07/22 02:51:10;;;;;;;8.52;2.30;;;12.40;99.90;;;;;;4232629;28;20040;-79
2023/07/22 02:53:11;;;;;;;4.57;2.22;;;12.40;99.90;;;;;;4231031;28;20096;-79
2023/07/22 02:55:14;;;;;;;5.00;1.92;;;12.30;99.90;;;;;;4232167;28;20816;-79
2023/07/22 02:57:15;;;;;;;8.55;2.20;;;12.30;99.90;;;;;;4230661;28;20449;-81
2023/07/22 02:59:16;;;;;;;6.25;2.10;;;12.30;99.90;;;;;;4232239;28;20051;-79
2023/07/22 03:01:16;;;;;;;6.60;2.83;;;12.30;99.90;;;;;;4232471;28;20082;-80
2023/07/22 03:03:18;;;;;;;5.30;2.10;;;12.30;99.90;;;;;;4232087;28;20612;-79
2023/07/22 03:05:19;;;;;;;5.65;2.28;;;12.30;99.90;;;;;;4232766;28;20159;-79
2023/07/22 03:07:20;;;;;;;7.07;2.30;;;12.30;99.90;;;;;;4232324;28;20047;-79
2023/07/22 03:09:21;;;;;;;6.25;2.90;;;12.30;99.90;;;;;;4230390;28;20044;-80
2023/07/22 03:11:24;;;;;;;4.45;2.38;;;12.20;99.90;;;;;;4230960;28;20580;-79
2023/07/22 03:13:29;;;;;;;8.43;2.75;;;12.20;99.90;;;;;;4230705;28;20499;-79
2023/07/22 03:15:30;;;;;;;5.35;2.50;;;12.20;99.90;;;;;;4232182;28;20039;-79
2023/07/22 03:17:31;;;;;;;7.25;2.92;;;12.20;99.90;;;;;;4232150;28;20047;-79
2023/07/22 03:19:31;;;;;;;5.20;1.83;;;12.10;99.90;;;;;;4231930;28;20047;-79
2023/07/22 03:21:32;;;;;;;5.50;2.20;;;12.20;99.90;;;;;;4232392;28;20426;-79
2023/07/22 03:23:33;;;;;;;6.25;2.53;;;12.20;99.90;;;;;;4231676;28;20089;-80
2023/07/22 03:25:34;;;;;;;6.03;2.78;;;12.20;99.90;;;;;;4232163;28;20042;-79
2023/07/22 03:27:35;;;;;;;6.68;2.63;;;12.20;99.90;;;;;;4231925;28;20051;-79
2023/07/22 03:29:36;;;;;;;8.45;2.38;;;12.10;99.90;;;;;;4230454;28;20131;-79
2023/07/22 03:31:37;;;;;;;8.68;2.70;;;12.10;99.90;;;;;;4231484;28;20127;-79
2023/07/22 03:33:38;;;;;;;4.43;2.45;;;12.10;99.90;;;;;;4229989;28;20092;-80
2023/07/22 03:35:39;;;;;;;5.03;2.50;;;12.10;99.90;;;;;;4231897;28;20065;-80
2023/07/22 03:37:40;;;;;;;6.82;2.90;;;12.10;99.90;;;;;;4231306;28;20051;-79
2023/07/22 03:39:41;;;;;;;7.47;2.70;;;12.10;99.90;;;;;;4231372;28;20040;-79
2023/07/22 03:41:41;;;;;;;5.97;2.47;;;12.10;99.90;;;;;;4230640;28;20055;-79
2023/07/22 03:43:43;;;;;;;6.15;2.60;;;12.10;99.90;;;;;;4231109;28;20445;-79
2023/07/22 03:45:44;;;;;;;5.38;2.78;;;12.10;99.90;;;;;;4231803;28;20093;-80
2023/07/22 03:47:45;;;;;;;7.32;3.08;;;12.10;99.90;;;;;;4231397;28;20479;-80
2023/07/22 03:49:46;;;;;;;6.45;2.85;;;12.10;99.90;;;;;;4231103;28;20100;-79
2023/07/22 03:51:48;;;;;;;8.68;3.63;;;12.10;99.90;;;;;;4231714;28;20508;-79
2023/07/22 03:53:48;;;;;;;7.40;2.65;;;12.10;99.90;;;;;;4231346;28;20044;-79
2023/07/22 03:55:49;;;;;;;10.77;3.83;;;12.10;99.90;;;;;;4230752;28;20047;-79
2023/07/22 03:57:50;;;;;;;7.80;3.30;;;12.10;99.90;;;;;;4229430;28;20407;-79
2023/07/22 03:59:50;;;;;;;7.35;3.15;;;12.10;99.90;;;;;;4231049;28;20044;-80
2023/07/22 04:01:51;;;;;;;8.93;2.63;;;12.10;99.90;;;;;;4231677;28;20054;-79
2023/07/22 04:03:52;;;;;;;8.25;3.30;;;12.10;99.90;;;;;;4229730;28;20128;-79
2023/07/22 04:05:56;;;;;;;8.77;2.85;;;12.10;99.90;;;;;;4230115;28;20052;-79
2023/07/22 04:07:57;;;;;;;5.88;2.45;;;12.20;99.90;;;;;;4231217;28;20043;-79
2023/07/22 04:09:57;;;;;;;8.13;2.97;;;12.20;99.90;;;;;;4230404;28;20570;-79
2023/07/22 04:11:58;;;;;;;8.55;3.42;;;12.00;99.90;;;;;;4231170;28;20044;-79
2023/07/22 04:13:59;;;;;;;14.40;2.83;;;12.30;99.90;;;;;;4229811;28;20400;-80
2023/07/22 04:15:59;;;;;;;6.82;3.53;;;12.40;99.90;;;;;;4231220;28;20047;-79
2023/07/22 04:18:00;;;;;;;5.70;2.78;;;12.60;99.90;;;;;;4229923;28;20605;-80
2023/07/22 04:20:00;;;;;;;6.55;2.40;;;12.40;99.90;;;;;;4231233;28;20104;-80
2023/07/22 04:22:04;;;;;;;4.93;2.35;;;12.40;99.90;;;;;;4231550;28;20192;-80
2023/07/22 04:24:06;;;;;;;7.20;2.53;;;12.50;99.90;;;;;;4231225;28;20157;-79
2023/07/22 04:26:09;;;;;;;5.90;2.58;;;12.50;99.90;;;;;;4231245;28;20369;-79
2023/07/22 04:28:10;;;;;;;7.65;2.53;;;12.60;99.90;;;;;;4231253;28;20503;-80
2023/07/22 04:30:12;;;;;;;5.70;2.60;;;12.60;99.90;;;;;;4230514;28;20044;-79
2023/07/22 04:32:13;;;;;;;8.32;2.38;;;12.60;99.90;;;;;;4229723;28;20123;-81
2023/07/22 04:34:13;;;;;;;8.82;2.67;;;12.70;99.90;;;;;;4213096;28;20511;-80
2023/07/22 04:36:14;;;;;;;6.30;2.75;;;12.80;99.90;;;;;;4230729;28;20047;-80
2023/07/22 04:38:15;;;;;;;4.82;1.90;;;11.90;99.90;;;;;;4230986;28;20487;-80
2023/07/22 04:40:16;;;;;;;6.00;2.08;;;12.80;99.90;;;;;;4230626;28;20557;-80
2023/07/22 04:42:17;;;;;;;6.90;2.10;;;12.80;99.90;;;;;;4229960;27;20043;-80
2023/07/22 04:44:19;;;;;;;7.50;2.40;;;12.80;99.90;;;;;;4230578;28;20546;-80
2023/07/22 04:46:20;;;;;;;6.15;2.17;;;12.90;99.90;;;;;;4230922;28;20411;-80
2023/07/22 04:48:23;;;;;;;5.03;2.40;;;12.90;99.90;;;;;;4230990;28;20040;-80
2023/07/22 04:50:24;;;;;;;6.85;1.77;;;13.00;99.90;;;;;;4230621;28;20051;-80
2023/07/22 04:52:24;;;;;;;3.17;1.60;;;13.00;99.90;;;;;;4230926;28;20043;-80
2023/07/22 04:54:28;;;;;;;5.38;2.15;;;13.00;99.90;;;;;;4230277;28;20051;-79
2023/07/22 04:56:28;;;;;;;6.18;1.83;;;13.10;99.90;;;;;;4229967;28;20048;-80
2023/07/22 04:58:29;;;;;;;4.68;2.42;;;13.20;99.90;;;;;;4230438;28;20459;-80
2023/07/22 05:00:30;;;;;;;5.35;1.85;;;13.20;99.90;;;;;;4230695;28;20075;-80
2023/07/22 05:02:32;;;;;;;4.35;1.52;;;13.20;99.90;;;;;;4230721;28;20099;-80
2023/07/22 05:04:32;;;;;;;5.00;1.55;;;13.20;99.90;;;;;;4230525;28;20046;-80
2023/07/22 05:06:34;;;;;;;7.90;2.25;;;13.20;99.90;;;;;;4228984;28;20039;-80
2023/07/22 05:08:37;;;;;;;4.05;2.38;;;13.40;99.90;;;;;;4230946;28;20463;-80
2023/07/22 05:10:39;;;;;;;6.88;2.47;;;13.30;99.90;;;;;;4234120;28;20530;-80
2023/07/22 05:12:42;;;;;;;9.82;2.17;;;13.40;99.90;;;;;;4234230;28;20109;-80
2023/07/22 05:14:43;;;;;;;4.53;2.33;;;13.30;99.90;;;;;;4215642;28;20407;-80
2023/07/22 05:16:43;;;;;;;6.35;2.42;;;13.40;99.90;;;;;;4233963;28;20062;-80
2023/07/22 05:18:44;;;;;;;7.70;2.40;;;13.40;99.90;;;;;;4231797;28;20043;-80
2023/07/22 05:20:45;;;;;;;9.70;3.35;;;13.40;99.90;;;;;;4216343;28;20064;-80
2023/07/22 05:22:46;;;;;;;6.22;2.70;;;13.50;99.90;;;;;;4232820;28;20040;-80
2023/07/22 05:24:47;;;;;;;7.43;2.70;;;13.50;99.90;;;;;;4233659;28;20046;-80
2023/07/22 05:26:48;;;;;;;7.88;3.38;;;13.60;99.90;;;;;;4233908;28;20048;-80
2023/07/22 05:28:48;;;;;;;6.82;3.03;;;13.50;99.90;;;;;;4233623;27;20483;-80
2023/07/22 05:30:50;;;;;;;7.50;3.28;;;13.60;99.90;;;;;;4233433;28;20049;-80
2023/07/22 05:32:54;;;;;;;7.95;3.78;;;13.70;99.90;;;;;;4233906;28;20094;-81
2023/07/22 05:34:54;;;;;;;7.13;2.85;;;13.80;99.90;;;;;;4233602;28;20126;-81
2023/07/22 05:36:55;;;;;;;8.05;3.13;;;13.80;99.90;;;;;;4233724;28;20506;-80
2023/07/22 05:38:57;;;;;;;6.22;3.25;;;13.80;99.90;;;;;;4232700;28;20052;-80
2023/07/22 05:40:58;;;;;;;8.90;3.60;;;13.90;99.90;;;;;;4232596;28;20040;-80
2023/07/22 05:42:58;;;;;;;12.00;4.10;;;14.10;99.90;;;;;;4233720;28;20043;-80
2023/07/22 05:45:02;;;;;;;8.85;3.83;;;14.10;99.90;;;;;;4232936;28;20036;-81
2023/07/22 05:47:03;;;;;;;9.27;3.80;;;14.30;99.90;;;;;;4233772;28;20058;-80
2023/07/22 05:49:04;;;;;;;9.43;3.42;;;14.30;99.90;;;;;;4231936;28;20054;-80
2023/07/22 05:51:05;;;;;;;6.50;2.88;;;14.30;99.90;;;;;;4233665;28;20051;-80
2023/07/22 05:53:06;;;;;;;11.38;3.92;;;14.50;99.90;;;;;;4232500;28;20043;-81
2023/07/22 05:55:07;;;;;;;6.15;3.25;;;14.40;99.90;;;;;;4232684;28;20047;-81
2023/07/22 05:57:08;;;;;;;9.13;3.38;;;14.50;99.90;;;;;;4232822;28;20601;-81
2023/07/22 05:59:09;;;;;;;6.25;3.58;;;14.50;99.90;;;;;;4215289;28;20044;-81
2023/07/22 06:01:11;;;;;;;7.80;3.15;;;14.50;99.90;;;;;;4233050;28;20058;-81
2023/07/22 06:03:13;;;;;;;7.18;3.53;;;14.60;99.90;;;;;;4233397;28;20051;-80
2023/07/22 06:05:14;;;;;;;8.52;3.40;;;14.60;99.90;;;;;;4231737;28;20047;-81
2023/07/22 06:07:15;;;;;;;7.32;3.42;;;14.70;99.90;;;;;;4233478;28;20114;-81
2023/07/22 06:09:19;;;;;;;7.90;3.35;;;14.70;99.90;;;;;;4233208;28;20122;-81
2023/07/22 06:11:21;;;;;;;7.25;3.45;;;14.80;99.90;;;;;;4232740;28;20495;-81
2023/07/22 06:13:21;;;;;;;6.22;3.20;;;15.10;99.90;;;;;;4231838;28;20079;-81
2023/07/22 06:15:23;;;;;;;8.88;3.65;;;14.90;99.90;;;;;;4232747;28;20482;-81
2023/07/22 06:17:23;;;;;;;11.30;3.92;;;15.00;99.90;;;;;;4233107;28;20043;-81
2023/07/22 06:19:24;;;;;;;9.13;3.63;;;14.20;99.90;;;;;;4232591;28;20083;-81
2023/07/22 06:21:25;;;;;;;8.05;3.42;;;15.20;99.90;;;;;;4232561;28;20095;-81
2023/07/22 06:23:25;;;;;;;7.80;3.63;;;15.30;99.90;;;;;;4214863;28;20079;-81
2023/07/22 06:25:26;;;;;;;5.82;3.28;;;15.30;99.90;;;;;;4232440;28;20075;-81
2023/07/22 06:27:27;;;;;;;8.45;4.00;;;15.20;99.90;;;;;;4232926;28;20567;-81
2023/07/22 06:29:28;;;;;;;10.15;3.90;;;15.30;99.90;;;;;;4230841;28;20047;-81
2023/07/22 06:31:30;;;;;;;8.77;3.67;;;15.30;99.90;;;;;;4232384;28;20054;-81
2023/07/22 06:33:31;;;;;;;6.82;3.42;;;15.30;99.90;;;;;;4232709;28;20539;-81
2023/07/22 06:35:31;;;;;;;10.38;3.75;;;15.40;99.90;;;;;;4232539;28;20054;-81
2023/07/22 06:37:32;;;;;;;11.50;4.22;;;15.30;99.90;;;;;;4232508;28;20499;-80
2023/07/22 06:39:33;;;;;;;7.72;3.88;;;15.40;99.90;;;;;;4231852;28;20506;-81
2023/07/22 06:41:33;;;;;;;10.20;3.92;;;15.50;99.90;;;;;;4231857;28;20043;-81
2023/07/22 06:43:34;;;;;;;9.65;3.83;;;15.50;99.90;;;;;;4232283;28;20088;-81
2023/07/22 06:45:35;;;;;;;9.38;4.25;;;15.60;99.90;;;;;;4232272;28;20387;-81
2023/07/22 06:47:36;;;;;;;12.07;4.47;;;15.70;99.90;;;;;;4232620;28;20508;-81
2023/07/22 06:49:36;;;;;;;10.10;4.47;;;15.80;99.90;;;;;;4232550;28;20048;-81
2023/07/22 06:51:37;;;;;;;10.23;3.90;;;15.60;99.90;;;;;;4232106;28;20046;-78
2023/07/22 06:53:38;;;;;;;9.68;4.18;;;15.70;99.90;;;;;;4232619;28;20093;-78
2023/07/22 06:55:39;;;;;;;10.95;4.80;;;15.80;99.90;;;;;;4232383;28;20048;-81
2023/07/22 06:57:39;;;;;;;9.73;4.25;;;15.80;99.90;;;;;;4232180;28;20059;-81
2023/07/22 06:59:40;;;;;;;11.40;4.80;;;15.90;99.90;;;;;;4232073;28;20036;-81
2023/07/22 07:01:41;;;;;;;10.98;4.03;;;16.00;99.90;;;;;;4232614;28;20055;-81
2023/07/22 07:03:42;;;;;;;11.85;4.53;;;16.10;99.90;;;;;;4230944;28;20131;-81
2023/07/22 07:05:43;;;;;;;9.77;4.28;;;16.20;99.90;;;;;;4232614;28;20502;-81
2023/07/22 07:07:44;;;;;;;12.90;4.93;;;17.00;99.90;;;;;;4231792;28;20036;-78
2023/07/22 07:09:45;;;;;;;10.52;4.22;;;16.40;99.90;;;;;;4232098;28;20036;-78
2023/07/22 07:11:45;;;;;;;11.32;4.82;;;16.50;99.90;;;;;;4233334;27;20044;-81
2023/07/22 07:13:46;;;;;;;8.35;4.22;;;16.60;99.90;;;;;;4232288;27;20040;-81
2023/07/22 07:15:50;;;;;;;10.65;4.47;;;16.60;99.90;;;;;;4232323;28;20054;-81
2023/07/22 07:17:51;;;;;;;11.75;5.25;;;16.70;99.90;;;;;;4232423;28;20174;-81
2023/07/22 07:19:52;;;;;;;10.63;4.53;;;16.90;99.90;;;;;;4230601;28;20093;-81
2023/07/22 07:21:52;;;;;;;9.15;4.60;;;16.90;99.90;;;;;;4230816;28;20081;-81
2023/07/22 07:23:54;;;;;;;10.02;4.10;;;16.90;99.90;;;;;;4230113;28;20123;-81
2023/07/22 07:25:55;;;;;;;8.90;3.95;;;16.90;99.90;;;;;;4232211;28;20464;-81
2023/07/22 07:27:55;;;;;;;11.63;4.50;;;16.80;99.90;;;;;;4229906;28;20044;-81
2023/07/22 07:29:56;;;;;;;9.30;4.75;;;16.80;99.90;;;;;;4230271;28;20046;-78
2023/07/22 07:31:57;;;;;;;9.85;4.32;;;16.70;99.90;;;;;;4229909;28;20055;-79
2023/07/22 07:33:57;;;;;;;9.20;4.32;;;16.70;99.90;;;;;;4231193;28;20435;-79
2023/07/22 07:35:58;;;;;;;8.80;4.95;;;16.70;99.90;;;;;;4231903;28;20044;-79
2023/07/22 07:37:59;;;;;;;11.75;4.68;;;16.60;99.90;;;;;;4231509;28;20479;-78
2023/07/22 07:40:00;;;;;;;9.82;4.68;;;16.60;99.90;;;;;;4231477;28;20031;-79
2023/07/22 07:42:00;;;;;;;8.70;4.22;;;16.60;99.90;;;;;;4230393;28;20150;-79
2023/07/22 07:44:01;;;;;;;11.48;5.05;;;16.60;99.90;;;;;;4231222;28;20514;-79
2023/07/22 07:46:17;;;;;;;10.95;4.50;;;16.60;99.90;;;;;;4231455;28;20086;-79
2023/07/22 07:48:17;;;;;;;12.02;5.15;;;16.60;99.90;;;;;;4231736;28;20119;-79
2023/07/22 07:50:18;;;;;;;9.68;4.35;;;16.70;99.90;;;;;;4231248;28;20084;-79
2023/07/22 07:52:19;;;;;;;12.48;4.45;;;16.70;99.90;;;;;;4231066;28;20079;-79
2023/07/22 07:54:20;;;;;;;9.32;4.55;;;16.70;99.90;;;;;;4229658;28;20048;-78
2023/07/22 07:56:21;;;;;;;11.85;4.95;;;16.70;99.90;;;;;;4231001;28;20051;-79
2023/07/22 07:58:22;;;;;;;11.45;5.45;;;16.80;99.90;;;;;;4230101;28;20046;-79
2023/07/22 08:00:23;;;;;;;9.35;4.90;;;16.80;99.90;;;;;;4230693;28;20035;-79
2023/07/22 08:02:23;;;;;;;16.73;6.80;;;16.90;99.90;;;;;;4231638;28;20147;-79
2023/07/22 08:04:24;;;;;;;15.05;5.28;;;17.00;99.90;;;;;;4231247;28;20054;-79
2023/07/22 08:06:24;;;;;;;8.88;4.50;;;17.20;99.90;;;;;;4229875;28;20043;-79
2023/07/22 08:08:25;;;;;;;13.68;4.68;;;;;;;;;;4231060;28;20118;-79
2023/07/22 08:10:26;;;;;;;12.35;5.80;;;;;;;;;;4233929;28;20044;-79
2023/07/22 08:12:27;;;;;;;12.75;5.40;;;;;;;;;;4230690;28;20067;-79
2023/07/22 08:14:28;;;;;;;9.15;4.70;;;;;;;;;;4213143;28;20036;-79
2023/07/22 08:16:30;;;;;;;9.13;4.57;;;;;;;;;;4230572;28;20039;-79
2023/07/22 08:18:31;;;;;;;10.23;4.60;;;17.30;99.90;;;;;;4229920;28;20151;-79
2023/07/22 08:20:32;;;;;;;10.68;4.70;;;18.00;99.90;;;;;;4230563;28;20075;-80
2023/07/22 08:22:33;;;;;;;9.55;4.18;;;18.00;99.90;;;;;;4231004;28;20036;-79
2023/07/22 08:24:33;;;;;;;11.63;4.78;;;17.90;99.90;;;;;;4230434;28;20119;-79
2023/07/22 08:26:34;;;;;;;7.88;3.97;;;18.00;99.90;;;;;;4229948;28;20546;-79
2023/07/22 08:28:34;;;;;;;8.55;4.07;;;17.90;99.90;;;;;;4230928;28;20529;-79
2023/07/22 08:30:35;;;;;;;7.60;4.18;;;18.00;99.90;;;;;;4230940;28;20168;-79
2023/07/22 08:32:37;;;;;;;8.88;4.55;;;18.00;99.90;;;;;;4229301;28;20055;-79
2023/07/22 08:34:41;;;;;;;9.85;4.00;;;17.90;99.90;;;;;;4230788;28;20055;-79
2023/07/22 08:36:42;;;;;;;8.52;3.97;;;17.90;99.90;;;;;;4230620;28;20411;-79
2023/07/22 08:38:43;;;;;;;8.65;4.18;;;17.90;99.90;;;;;;4230893;28;20075;-79
2023/07/22 08:40:48;;;;;;;7.35;4.15;;;17.90;99.90;;;;;;4230875;28;20044;-79
2023/07/22 08:42:50;;;;;;;7.75;3.63;;;17.90;99.90;;;;;;4231100;28;20499;-79
2023/07/22 08:44:56;;;;;;;8.60;3.70;;;17.80;99.90;;;;;;4230464;28;20040;-79
2023/07/22 08:46:59;;;;;;;6.97;3.95;;;17.80;99.90;;;;;;4230853;28;20071;-79
2023/07/22 08:49:00;;;;;;;7.05;4.03;;;17.90;99.90;;;;;;4230473;28;20051;-80
2023/07/22 08:51:14;;;;;;;9.10;4.57;;;17.90;99.90;;;;;;4230608;28;20048;-79
2023/07/22 08:53:16;;;;;;;7.63;3.55;;;;;;;;;;4230532;28;20036;-79
2023/07/22 08:55:18;;;;;;;7.57;3.50;;;18.00;99.90;;;;;;4230133;28;20487;-79
2023/07/22 08:57:19;;;;;;;8.98;3.38;;;18.40;99.90;;;;;;4229638;28;20042;-79
2023/07/22 08:59:20;;;;;;;9.50;4.97;;;18.50;99.90;;;;;;4230531;28;20044;-79
2023/07/22 09:01:22;;;;;;;8.35;3.72;;;18.70;99.90;;;;;;4229904;28;20078;-80
2023/07/22 09:03:25;;;;;;;6.57;3.40;;;18.80;99.90;;;;;;4230303;28;20074;-79
2023/07/22 09:05:26;;;;;;;7.15;3.60;;;18.80;99.90;;;;;;4230550;28;20471;-79
2023/07/22 09:07:27;;;;;;;9.13;3.35;;;18.90;99.90;;;;;;4230977;28;20498;-79
2023/07/22 09:09:28;;;;;;;5.68;2.90;;;19.10;99.90;;;;;;4230244;28;20172;-79
2023/07/22 09:11:29;;;;;;;5.25;2.78;;;19.20;99.90;;;;;;4229778;28;20051;-80
2023/07/22 09:13:30;;;;;;;3.58;2.10;;;19.40;99.90;;;;;;4230538;28;20071;-79
2023/07/22 09:15:36;;;;;;;4.97;2.65;;;19.40;99.90;;;;;;4228988;28;20081;-79
2023/07/22 09:17:40;;;;;;;7.10;2.95;;;19.60;99.90;;;;;;4229251;28;20052;-79
2023/07/22 09:19:41;;;;;;;5.97;2.90;;;19.60;99.90;;;;;;4230031;28;20058;-79
2023/07/22 09:21:42;;;;;;;8.13;2.58;;;19.60;99.90;;;;;;4230462;28;20426;-79
2023/07/22 09:23:42;;;;;;;3.92;2.50;;;19.40;99.90;;;;;;4229945;28;20036;-79
2023/07/22 09:25:44;;;;;;;5.57;2.78;;;19.30;99.90;;;;;;4211960;28;20048;-79
2023/07/22 09:27:57;;;;;;;4.88;2.55;;;19.10;99.90;;;;;;4230489;28;20040;-79
2023/07/22 09:29:58;;;;;;;4.35;2.45;;;18.90;99.90;;;;;;4229998;28;20053;-79
2023/07/22 09:31:59;;;;;;;3.80;2.30;;;18.70;99.90;;;;;;4230098;28;20074;-79
2023/07/22 09:34:10;;;;;;;5.90;2.35;;;18.60;99.90;;;;;;4229883;28;20056;-79
2023/07/22 09:36:11;;;;;;;3.92;2.40;;;18.40;99.90;;;;;;4230568;28;20035;-79
2023/07/22 09:38:12;;;;;;;8.25;3.05;;;18.20;99.90;;;;;;4230387;28;20039;-79
2023/07/22 09:40:21;;;;;;;6.30;2.45;;;18.20;99.90;;;;;;4229948;28;20028;-79
2023/07/22 09:42:25;;;;;;;7.35;3.05;;;18.10;99.90;;;;;;4229254;28;20104;-79
2023/07/22 09:44:32;;;;;;;7.60;2.80;;;18.00;99.90;;;;;;4230213;28;20036;-79
2023/07/22 09:46:33;;;;;;;8.15;3.50;;;17.90;99.90;;;;;;4230326;28;20039;-79
2023/07/22 09:48:45;;;;;;;6.97;3.33;;;17.70;99.90;;;;;;4230861;28;20058;-79
2023/07/22 09:50:46;;;;;;;6.65;3.38;;;17.50;99.90;;;;;;4230152;28;20046;-79
2023/07/22 09:52:54;;;;;;;6.78;3.53;;;17.30;99.90;;;;;;4229966;28;20123;-80
2023/07/22 09:54:56;;;;;;;8.05;3.97;;;17.10;99.90;;;;;;4229778;28;20051;-80
2023/07/22 09:56:56;;;;;;;7.57;3.55;;;17.00;99.90;;;;;;4233148;28;20128;-79
2023/07/22 09:59:05;;;;;;;6.88;3.88;;;16.70;99.90;;;;;;4232734;28;20039;-81
2023/07/22 10:01:07;;;;;;;7.25;3.78;;;16.90;99.90;;;;;;4233548;28;20537;-80
2023/07/22 10:03:11;;;;;;;11.05;4.57;;;16.90;99.90;;;;;;4233354;28;20129;-80
2023/07/22 10:05:14;;;;;;;9.10;4.80;;;17.00;99.90;;;;;;4233264;27;20168;-80
2023/07/22 10:07:16;;;;;;;7.72;3.97;;;17.00;99.90;;;;;;4233234;28;20139;-80
2023/07/22 10:09:18;;;;;;;10.32;4.40;;;17.00;99.90;;;;;;4232481;28;20044;-80
2023/07/22 10:11:19;;;;;;;8.07;4.45;;;17.00;99.90;;;;;;4233197;27;20047;-80
2023/07/22 10:13:20;;;;;;;6.72;3.85;;;17.10;99.90;;;;;;4233254;28;20038;-80
2023/07/22 10:15:21;;;;;;;7.53;3.88;;;17.00;99.90;;;;;;4232832;28;20086;-80
2023/07/22 10:17:22;;;;;;;8.80;4.28;;;17.00;99.90;;;;;;4233137;28;20051;-80
2023/07/22 10:19:25;;;;;;;6.32;3.60;;;17.00;99.90;;;;;;4232458;28;20058;-80
2023/07/22 10:21:28;;;;;;;9.20;3.63;;;17.00;99.90;;;;;;4233374;28;20513;-80
2023/07/22 10:23:31;;;;;;;11.15;4.32;;;17.00;99.90;;;;;;4233013;28;20093;-80
2023/07/22 10:25:32;;;;;;;8.23;4.05;;;17.00;99.90;;;;;;4232945;28;20043;-80
2023/07/22 10:27:34;;;;;;;7.03;3.40;;;17.10;99.90;;;;;;4232837;28;20372;-80
2023/07/22 10:29:35;;;;;;;5.82;3.30;;;17.10;99.90;;;;;;4233092;28;20051;-80
2023/07/22 10:31:36;;;;;;;9.30;3.70;;;17.10;99.90;;;;;;4232925;28;20052;-80
2023/07/22 10:33:36;;;;;;;9.65;3.97;;;17.10;99.90;;;;;;4232915;28;20375;-81